sensor_id;sensor_type;location;lat;lon;timestamp;pressure;altitude;pressure_sealevel;temperature;humidity
74083;BME280;62439;50.490;6.620;2022-07-23T00:00:56;96032.84;;;15.39;78.85
74083;BME280;62439;50.490;6.620;2022-07-23T00:03:23;96042.38;;;15.35;79.65
74083;BME280;62439;50.490;6.620;2022-07-23T00:05:51;96047.84;;;15.15;79.51
74083;BME280;62439;50.490;6.620;2022-07-23T00:08:19;96074.22;;;15.11;80.54
74083;BME280;62439;50.490;6.620;2022-07-23T00:10:47;96068.34;;;14.95;81.55
74083;BME280;62439;50.490;6.620;2022-07-23T00:13:15;96074.16;;;14.92;82.16
74083;BME280;62439;50.490;6.620;2022-07-23T00:15:43;96075.25;;;14.91;82.45
74083;BME280;62439;50.490;6.620;2022-07-23T00:18:11;96069.69;;;14.93;82.36
74083;BME280;62439;50.490;6.620;2022-07-23T00:20:38;96061.28;;;14.91;82.21
74083;BME280;62439;50.490;6.620;2022-07-23T00:23:05;96073.38;;;14.92;82.40
74083;BME280;62439;50.490;6.620;2022-07-23T00:25:34;96066.03;;;14.89;81.10
74083;BME280;62439;50.490;6.620;2022-07-23T00:28:02;96067.91;;;14.88;82.84
74083;BME280;62439;50.490;6.620;2022-07-23T00:30:32;96045.09;;;14.79;81.83
74083;BME280;62439;50.490;6.620;2022-07-23T00:33:01;96073.72;;;14.85;82.66
74083;BME280;62439;50.490;6.620;2022-07-23T00:35:31;96063.91;;;14.91;82.05
74083;BME280;62439;50.490;6.620;2022-07-23T00:38:00;96066.72;;;14.99;82.17
74083;BME280;62439;50.490;6.620;2022-07-23T00:40:28;96054.97;;;14.92;82.68
74083;BME280;62439;50.490;6.620;2022-07-23T00:42:56;96063.41;;;14.89;82.85
74083;BME280;62439;50.490;6.620;2022-07-23T00:45:25;96063.97;;;14.86;83.31
74083;BME280;62439;50.490;6.620;2022-07-23T00:47:54;96070.78;;;14.87;82.98
74083;BME280;62439;50.490;6.620;2022-07-23T00:50:22;96060.88;;;14.79;83.59
74083;BME280;62439;50.490;6.620;2022-07-23T00:52:49;96050.41;;;14.74;84.12
74083;BME280;62439;50.490;6.620;2022-07-23T00:55:17;96056.84;;;14.63;84.32
74083;BME280;62439;50.490;6.620;2022-07-23T00:57:45;96066.44;;;14.77;84.34
74083;BME280;62439;50.490;6.620;2022-07-23T01:00:14;96057.38;;;14.88;83.96
74083;BME280;62439;50.490;6.620;2022-07-23T01:02:42;96048.69;;;14.88;83.71
74083;BME280;62439;50.490;6.620;2022-07-23T01:05:14;96053.22;;;14.82;83.90
74083;BME280;62439;50.490;6.620;2022-07-23T01:07:42;96054.94;;;14.68;84.55
74083;BME280;62439;50.490;6.620;2022-07-23T01:10:10;96048.84;;;14.73;84.61
74083;BME280;62439;50.490;6.620;2022-07-23T01:12:51;96047.97;;;14.54;85.13
74083;BME280;62439;50.490;6.620;2022-07-23T01:15:19;96047.75;;;14.50;85.64
74083;BME280;62439;50.490;6.620;2022-07-23T01:17:46;96044.41;;;14.45;86.03
74083;BME280;62439;50.490;6.620;2022-07-23T01:20:15;96048.56;;;14.46;86.18
74083;BME280;62439;50.490;6.620;2022-07-23T01:22:45;96037.22;;;14.27;86.70
74083;BME280;62439;50.490;6.620;2022-07-23T01:25:12;96057.72;;;14.25;87.12
74083;BME280;62439;50.490;6.620;2022-07-23T01:27:40;96049.59;;;14.21;87.00
74083;BME280;62439;50.490;6.620;2022-07-23T01:30:10;96047.75;;;14.22;87.06
74083;BME280;62439;50.490;6.620;2022-07-23T01:32:38;96023.44;;;14.01;87.69
74083;BME280;62439;50.490;6.620;2022-07-23T01:35:07;96041.03;;;14.06;88.28
74083;BME280;62439;50.490;6.620;2022-07-23T01:37:35;96024.53;;;14.34;86.82
74083;BME280;62439;50.490;6.620;2022-07-23T01:40:05;96017.91;;;14.36;86.66
74083;BME280;62439;50.490;6.620;2022-07-23T01:42:33;96020.88;;;14.30;86.82
74083;BME280;62439;50.490;6.620;2022-07-23T01:45:04;96025.09;;;14.31;86.64
74083;BME280;62439;50.490;6.620;2022-07-23T01:47:31;95987.91;;;14.14;86.35
74083;BME280;62439;50.490;6.620;2022-07-23T01:49:59;96024.13;;;14.22;86.78
74083;BME280;62439;50.490;6.620;2022-07-23T01:52:26;96024.69;;;14.14;87.06
74083;BME280;62439;50.490;6.620;2022-07-23T01:54:54;96012.38;;;14.04;87.35
74083;BME280;62439;50.490;6.620;2022-07-23T01:57:23;96016.66;;;13.95;87.85
74083;BME280;62439;50.490;6.620;2022-07-23T01:59:50;96011.19;;;13.92;88.01
74083;BME280;62439;50.490;6.620;2022-07-23T02:02:18;96005.47;;;13.85;88.22
74083;BME280;62439;50.490;6.620;2022-07-23T02:04:45;96014.91;;;13.86;88.67
74083;BME280;62439;50.490;6.620;2022-07-23T02:07:13;96018.25;;;13.91;88.46
74083;BME280;62439;50.490;6.620;2022-07-23T02:09:40;96014.34;;;13.89;88.54
74083;BME280;62439;50.490;6.620;2022-07-23T02:12:08;96025.41;;;13.86;88.17
74083;BME280;62439;50.490;6.620;2022-07-23T02:14:37;96016.28;;;13.74;89.23
74083;BME280;62439;50.490;6.620;2022-07-23T02:17:04;96024.69;;;13.76;88.88
74083;BME280;62439;50.490;6.620;2022-07-23T02:19:32;96022.38;;;13.69;88.85
74083;BME280;62439;50.490;6.620;2022-07-23T02:21:59;96015.81;;;13.67;89.42
74083;BME280;62439;50.490;6.620;2022-07-23T02:24:27;96027.19;;;13.57;89.60
74083;BME280;62439;50.490;6.620;2022-07-23T02:26:54;96025.94;;;13.45;89.74
74083;BME280;62439;50.490;6.620;2022-07-23T02:29:22;96018.41;;;13.28;90.71
74083;BME280;62439;50.490;6.620;2022-07-23T02:31:50;96001.66;;;13.19;90.67
74083;BME280;62439;50.490;6.620;2022-07-23T02:34:18;96016.63;;;13.19;90.89
74083;BME280;62439;50.490;6.620;2022-07-23T02:36:45;96016.91;;;13.12;90.96
74083;BME280;62439;50.490;6.620;2022-07-23T02:39:13;96011.19;;;13.00;91.71
74083;BME280;62439;50.490;6.620;2022-07-23T02:41:40;96020.91;;;13.00;91.95
74083;BME280;62439;50.490;6.620;2022-07-23T02:44:08;96010.94;;;13.02;92.44
74083;BME280;62439;50.490;6.620;2022-07-23T02:46:36;96019.09;;;12.95;92.82
74083;BME280;62439;50.490;6.620;2022-07-23T02:49:06;96011.19;;;13.05;93.05
74083;BME280;62439;50.490;6.620;2022-07-23T02:51:34;96013.81;;;13.05;93.42
74083;BME280;62439;50.490;6.620;2022-07-23T02:54:01;96008.31;;;13.07;93.26
74083;BME280;62439;50.490;6.620;2022-07-23T02:56:29;96025.84;;;13.11;93.39
74083;BME280;62439;50.490;6.620;2022-07-23T02:58:56;96024.78;;;13.12;92.88
74083;BME280;62439;50.490;6.620;2022-07-23T03:01:24;96024.53;;;13.14;92.97
74083;BME280;62439;50.490;6.620;2022-07-23T03:03:52;96017.72;;;13.13;93.28
74083;BME280;62439;50.490;6.620;2022-07-23T03:06:21;95979.75;;;12.85;93.36
74083;BME280;62439;50.490;6.620;2022-07-23T03:08:49;96017.19;;;13.16;93.46
74083;BME280;62439;50.490;6.620;2022-07-23T03:11:16;96015.88;;;13.08;93.29
74083;BME280;62439;50.490;6.620;2022-07-23T03:13:44;96022.69;;;13.09;93.24
74083;BME280;62439;50.490;6.620;2022-07-23T03:16:12;96011.72;;;13.02;93.21
74083;BME280;62439;50.490;6.620;2022-07-23T03:18:39;96018.50;;;13.08;93.26
74083;BME280;62439;50.490;6.620;2022-07-23T03:21:08;96021.44;;;13.02;93.16
74083;BME280;62439;50.490;6.620;2022-07-23T03:23:37;96025.91;;;12.91;93.44
74083;BME280;62439;50.490;6.620;2022-07-23T03:26:05;96021.97;;;12.99;93.22
74083;BME280;62439;50.490;6.620;2022-07-23T03:28:32;96032.47;;;12.99;92.89
74083;BME280;62439;50.490;6.620;2022-07-23T03:31:00;96031.44;;;12.95;92.89
74083;BME280;62439;50.490;6.620;2022-07-23T03:33:27;96029.56;;;12.95;92.59
74083;BME280;62439;50.490;6.620;2022-07-23T03:35:55;96028.78;;;13.00;92.41
74083;BME280;62439;50.490;6.620;2022-07-23T03:38:22;96034.56;;;13.02;91.85
74083;BME280;62439;50.490;6.620;2022-07-23T03:40:51;96019.59;;;12.97;91.98
74083;BME280;62439;50.490;6.620;2022-07-23T03:43:18;96028.28;;;12.98;92.05
74083;BME280;62439;50.490;6.620;2022-07-23T03:45:46;96033.25;;;12.94;91.69
74083;BME280;62439;50.490;6.620;2022-07-23T03:48:13;96037.97;;;12.97;91.51
74083;BME280;62439;50.490;6.620;2022-07-23T03:50:41;96042.94;;;12.99;91.69
74083;BME280;62439;50.490;6.620;2022-07-23T03:53:08;96035.59;;;13.06;91.55
74083;BME280;62439;50.490;6.620;2022-07-23T03:55:36;96039.50;;;13.08;91.59
74083;BME280;62439;50.490;6.620;2022-07-23T03:58:05;96041.56;;;13.16;90.96
74083;BME280;62439;50.490;6.620;2022-07-23T04:00:32;96033.16;;;13.14;90.94
74083;BME280;62439;50.490;6.620;2022-07-23T04:03:00;96034.22;;;13.13;90.86
74083;BME280;62439;50.490;6.620;2022-07-23T04:05:27;96040.47;;;13.27;90.95
74083;BME280;62439;50.490;6.620;2022-07-23T04:07:55;96047.31;;;13.23;90.67
74083;BME280;62439;50.490;6.620;2022-07-23T04:10:22;96041.53;;;13.21;90.82
74083;BME280;62439;50.490;6.620;2022-07-23T04:12:49;96043.41;;;13.16;90.81
74083;BME280;62439;50.490;6.620;2022-07-23T04:15:18;96035.25;;;13.17;90.64
74083;BME280;62439;50.490;6.620;2022-07-23T04:17:46;96046.81;;;13.11;90.86
74083;BME280;62439;50.490;6.620;2022-07-23T04:20:14;96051.03;;;13.12;90.94
74083;BME280;62439;50.490;6.620;2022-07-23T04:22:41;96053.91;;;13.16;90.88
74083;BME280;62439;50.490;6.620;2022-07-23T04:25:08;96053.94;;;13.11;90.95
74083;BME280;62439;50.490;6.620;2022-07-23T04:27:36;96051.31;;;13.11;91.00
74083;BME280;62439;50.490;6.620;2022-07-23T04:30:05;96057.84;;;13.13;90.96
74083;BME280;62439;50.490;6.620;2022-07-23T04:32:34;96054.69;;;13.16;90.56
74083;BME280;62439;50.490;6.620;2022-07-23T04:35:01;96069.38;;;13.17;90.62
74083;BME280;62439;50.490;6.620;2022-07-23T04:37:29;96065.66;;;13.28;90.58
74083;BME280;62439;50.490;6.620;2022-07-23T04:39:56;96068.97;;;13.49;89.61
74083;BME280;62439;50.490;6.620;2022-07-23T04:42:24;96070.25;;;13.56;89.43
74083;BME280;62439;50.490;6.620;2022-07-23T04:44:51;96068.31;;;13.67;89.41
74083;BME280;62439;50.490;6.620;2022-07-23T04:47:19;96066.78;;;13.61;88.72
74083;BME280;62439;50.490;6.620;2022-07-23T04:49:49;96075.44;;;13.66;89.32
74083;BME280;62439;50.490;6.620;2022-07-23T04:52:18;96078.53;;;13.73;89.44
74083;BME280;62439;50.490;6.620;2022-07-23T04:54:45;96062.19;;;13.86;89.44
74083;BME280;62439;50.490;6.620;2022-07-23T04:57:12;96077.56;;;14.02;88.73
74083;BME280;62439;50.490;6.620;2022-07-23T04:59:40;96084.09;;;14.10;88.37
74083;BME280;62439;50.490;6.620;2022-07-23T05:02:07;96094.06;;;14.13;87.88
74083;BME280;62439;50.490;6.620;2022-07-23T05:04:35;96091.13;;;14.19;86.71
74083;BME280;62439;50.490;6.620;2022-07-23T05:07:04;96098.16;;;14.29;86.98
74083;BME280;62439;50.490;6.620;2022-07-23T05:09:31;96093.63;;;14.34;86.54
74083;BME280;62439;50.490;6.620;2022-07-23T05:12:00;96097.59;;;14.37;86.96
74083;BME280;62439;50.490;6.620;2022-07-23T05:14:28;96069.00;;;14.25;86.07
74083;BME280;62439;50.490;6.620;2022-07-23T05:16:55;96091.78;;;14.40;85.34
74083;BME280;62439;50.490;6.620;2022-07-23T05:19:22;96091.72;;;14.45;85.70
74083;BME280;62439;50.490;6.620;2022-07-23T05:21:50;96094.66;;;14.38;84.92
74083;BME280;62439;50.490;6.620;2022-07-23T05:24:19;96087.53;;;14.44;84.82
74083;BME280;62439;50.490;6.620;2022-07-23T05:26:47;96087.97;;;14.51;84.50
74083;BME280;62439;50.490;6.620;2022-07-23T05:29:14;96092.47;;;14.50;84.70
74083;BME280;62439;50.490;6.620;2022-07-23T05:31:42;96098.22;;;14.24;85.63
74083;BME280;62439;50.490;6.620;2022-07-23T05:34:09;96099.44;;;14.31;85.74
74083;BME280;62439;50.490;6.620;2022-07-23T05:36:43;96093.09;;;14.37;85.83
74083;BME280;62439;50.490;6.620;2022-07-23T05:39:10;96082.31;;;14.39;85.92
74083;BME280;62439;50.490;6.620;2022-07-23T05:41:39;96094.34;;;14.45;85.13
74083;BME280;62439;50.490;6.620;2022-07-23T05:44:08;96104.28;;;14.48;85.39
74083;BME280;62439;50.490;6.620;2022-07-23T05:46:36;96097.94;;;14.54;85.24
74083;BME280;62439;50.490;6.620;2022-07-23T05:49:03;96103.44;;;14.57;85.08
74083;BME280;62439;50.490;6.620;2022-07-23T05:51:32;96100.97;;;14.66;84.53
74083;BME280;62439;50.490;6.620;2022-07-23T05:53:59;96106.50;;;14.69;83.55
74083;BME280;62439;50.490;6.620;2022-07-23T05:56:27;96115.06;;;14.80;84.71
74083;BME280;62439;50.490;6.620;2022-07-23T05:58:56;96113.19;;;14.52;84.19
74083;BME280;62439;50.490;6.620;2022-07-23T06:01:24;96104.97;;;14.63;85.45
74083;BME280;62439;50.490;6.620;2022-07-23T06:03:51;96123.09;;;14.65;86.03
74083;BME280;62439;50.490;6.620;2022-07-23T06:06:19;96116.50;;;14.67;84.07
74083;BME280;62439;50.490;6.620;2022-07-23T06:08:46;96126.97;;;14.72;85.16
74083;BME280;62439;50.490;6.620;2022-07-23T06:11:14;96131.91;;;14.79;85.15
74083;BME280;62439;50.490;6.620;2022-07-23T06:13:41;96132.91;;;14.83;84.15
74083;BME280;62439;50.490;6.620;2022-07-23T06:16:10;96126.84;;;14.87;83.91
74083;BME280;62439;50.490;6.620;2022-07-23T06:18:38;96125.78;;;14.88;83.70
74083;BME280;62439;50.490;6.620;2022-07-23T06:21:05;96137.81;;;14.94;83.71
74083;BME280;62439;50.490;6.620;2022-07-23T06:23:53;96129.03;;;15.04;84.25
74083;BME280;62439;50.490;6.620;2022-07-23T06:26:20;96130.19;;;15.21;83.76
74083;BME280;62439;50.490;6.620;2022-07-23T06:28:47;96133.66;;;14.88;84.83
74083;BME280;62439;50.490;6.620;2022-07-23T06:31:16;96139.16;;;15.20;84.84
74083;BME280;62439;50.490;6.620;2022-07-23T06:33:44;96132.38;;;15.37;84.03
74083;BME280;62439;50.490;6.620;2022-07-23T06:36:11;96140.50;;;15.64;82.05
74083;BME280;62439;50.490;6.620;2022-07-23T06:38:39;96135.34;;;15.54;81.84
74083;BME280;62439;50.490;6.620;2022-07-23T06:41:07;96110.44;;;15.65;81.34
74083;BME280;62439;50.490;6.620;2022-07-23T06:43:34;96139.09;;;16.27;80.73
74083;BME280;62439;50.490;6.620;2022-07-23T06:46:02;96137.16;;;16.69;78.53
74083;BME280;62439;50.490;6.620;2022-07-23T06:48:31;96141.22;;;16.94;77.65
74083;BME280;62439;50.490;6.620;2022-07-23T06:51:00;96137.06;;;17.33;75.00
74083;BME280;62439;50.490;6.620;2022-07-23T06:53:28;96145.41;;;17.40;74.55
74083;BME280;62439;50.490;6.620;2022-07-23T06:55:55;96147.97;;;17.59;71.49
74083;BME280;62439;50.490;6.620;2022-07-23T06:58:23;96149.91;;;17.67;68.08
74083;BME280;62439;50.490;6.620;2022-07-23T07:00:50;96149.41;;;17.51;70.57
74083;BME280;62439;50.490;6.620;2022-07-23T07:03:18;96145.31;;;17.32;68.11
74083;BME280;62439;50.490;6.620;2022-07-23T07:05:47;96146.59;;;17.02;69.40
74083;BME280;62439;50.490;6.620;2022-07-23T07:08:16;96147.56;;;17.52;69.27
74083;BME280;62439;50.490;6.620;2022-07-23T07:10:43;96158.06;;;18.05;66.74
74083;BME280;62439;50.490;6.620;2022-07-23T07:13:10;96147.06;;;17.63;66.64
74083;BME280;62439;50.490;6.620;2022-07-23T07:15:38;96131.19;;;17.90;66.76
74083;BME280;62439;50.490;6.620;2022-07-23T07:18:05;96159.91;;;17.70;65.90
74083;BME280;62439;50.490;6.620;2022-07-23T07:20:33;96141.13;;;17.58;66.12
74083;BME280;62439;50.490;6.620;2022-07-23T07:23:03;96158.91;;;17.79;65.55
74083;BME280;62439;50.490;6.620;2022-07-23T07:25:30;96161.75;;;17.82;65.55
74083;BME280;62439;50.490;6.620;2022-07-23T07:27:58;96164.94;;;17.93;64.64
74083;BME280;62439;50.490;6.620;2022-07-23T07:30:25;96163.38;;;17.25;67.74
74083;BME280;62439;50.490;6.620;2022-07-23T07:32:59;96158.28;;;17.95;64.50
74083;BME280;62439;50.490;6.620;2022-07-23T07:35:27;96166.22;;;18.44;64.47
74083;BME280;62439;50.490;6.620;2022-07-23T07:37:54;96174.56;;;17.49;64.99
74083;BME280;62439;50.490;6.620;2022-07-23T07:40:23;96173.44;;;18.03;63.99
74083;BME280;62439;50.490;6.620;2022-07-23T07:42:58;96161.09;;;18.26;64.01
74083;BME280;62439;50.490;6.620;2022-07-23T07:45:26;96170.41;;;18.59;63.76
74083;BME280;62439;50.490;6.620;2022-07-23T07:47:53;96186.09;;;18.55;61.57
74083;BME280;62439;50.490;6.620;2022-07-23T07:50:21;96181.34;;;18.66;59.91
74083;BME280;62439;50.490;6.620;2022-07-23T07:52:49;96182.00;;;18.49;59.81
74083;BME280;62439;50.490;6.620;2022-07-23T07:55:16;96169.66;;;18.89;58.14
74083;BME280;62439;50.490;6.620;2022-07-23T07:57:45;96178.63;;;19.01;59.34
74083;BME280;62439;50.490;6.620;2022-07-23T08:00:15;96182.00;;;18.49;60.25
74083;BME280;62439;50.490;6.620;2022-07-23T08:02:45;96175.56;;;18.86;57.90
74083;BME280;62439;50.490;6.620;2022-07-23T08:05:14;96172.38;;;18.75;58.16
74083;BME280;62439;50.490;6.620;2022-07-23T08:07:41;96183.31;;;18.60;57.30
74083;BME280;62439;50.490;6.620;2022-07-23T08:10:09;96187.19;;;19.20;55.83
74083;BME280;62439;50.490;6.620;2022-07-23T08:12:38;96168.03;;;19.01;54.75
74083;BME280;62439;50.490;6.620;2022-07-23T08:15:08;96181.22;;;18.93;57.41
74083;BME280;62439;50.490;6.620;2022-07-23T08:17:40;96184.66;;;18.93;56.61
74083;BME280;62439;50.490;6.620;2022-07-23T08:20:09;96190.31;;;19.00;56.07
74083;BME280;62439;50.490;6.620;2022-07-23T08:22:48;96175.63;;;19.46;55.26
74083;BME280;62439;50.490;6.620;2022-07-23T08:25:17;96175.66;;;19.55;54.86
74083;BME280;62439;50.490;6.620;2022-07-23T08:27:47;96191.75;;;19.28;54.62
74083;BME280;62439;50.490;6.620;2022-07-23T08:30:17;96192.59;;;19.45;54.05
74083;BME280;62439;50.490;6.620;2022-07-23T08:32:53;96200.00;;;19.26;55.69
74083;BME280;62439;50.490;6.620;2022-07-23T08:35:25;96194.53;;;19.01;55.28
74083;BME280;62439;50.490;6.620;2022-07-23T08:37:53;96205.25;;;19.18;53.65
74083;BME280;62439;50.490;6.620;2022-07-23T08:40:21;96185.75;;;19.44;54.72
74083;BME280;62439;50.490;6.620;2022-07-23T08:42:50;96208.84;;;19.91;53.38
74083;BME280;62439;50.490;6.620;2022-07-23T08:45:20;96214.19;;;19.61;52.55
74083;BME280;62439;50.490;6.620;2022-07-23T08:47:49;96214.31;;;19.56;52.67
74083;BME280;62439;50.490;6.620;2022-07-23T08:50:19;96215.06;;;19.87;53.17
74083;BME280;62439;50.490;6.620;2022-07-23T08:52:48;96213.06;;;19.92;51.87
74083;BME280;62439;50.490;6.620;2022-07-23T08:55:17;96211.13;;;20.15;52.47
74083;BME280;62439;50.490;6.620;2022-07-23T08:57:44;96212.78;;;19.55;52.37
74083;BME280;62439;50.490;6.620;2022-07-23T09:00:15;96193.50;;;19.71;51.05
74083;BME280;62439;50.490;6.620;2022-07-23T09:02:45;96220.41;;;19.56;53.37
74083;BME280;62439;50.490;6.620;2022-07-23T09:05:14;96224.09;;;20.25;53.10
74083;BME280;62439;50.490;6.620;2022-07-23T09:08:04;96228.06;;;20.52;54.44
74083;BME280;62439;50.490;6.620;2022-07-23T09:10:43;96216.31;;;20.37;51.62
74083;BME280;62439;50.490;6.620;2022-07-23T09:13:23;96224.06;;;20.08;52.13
74083;BME280;62439;50.490;6.620;2022-07-23T09:15:52;96210.66;;;20.13;53.24
74083;BME280;62439;50.490;6.620;2022-07-23T09:18:29;96216.28;;;20.20;53.45
74083;BME280;62439;50.490;6.620;2022-07-23T09:21:17;96225.25;;;20.74;54.21
74083;BME280;62439;50.490;6.620;2022-07-23T09:23:47;96229.00;;;20.73;54.53
74083;BME280;62439;50.490;6.620;2022-07-23T09:26:21;96231.84;;;20.85;51.47
74083;BME280;62439;50.490;6.620;2022-07-23T09:28:51;96230.25;;;20.76;51.50
74083;BME280;62439;50.490;6.620;2022-07-23T09:31:20;96232.41;;;20.40;51.96
74083;BME280;62439;50.490;6.620;2022-07-23T09:33:49;96222.44;;;19.59;55.21
74083;BME280;62439;50.490;6.620;2022-07-23T09:36:27;96228.03;;;20.27;54.06
74083;BME280;62439;50.490;6.620;2022-07-23T09:38:55;96235.19;;;19.79;54.55
74083;BME280;62439;50.490;6.620;2022-07-23T09:41:22;96234.72;;;20.16;55.22
74083;BME280;62439;50.490;6.620;2022-07-23T09:43:55;96224.78;;;20.55;53.14
74083;BME280;62439;50.490;6.620;2022-07-23T09:46:24;96232.69;;;20.22;54.16
74083;BME280;62439;50.490;6.620;2022-07-23T09:48:54;96238.19;;;20.59;55.24
74083;BME280;62439;50.490;6.620;2022-07-23T09:51:24;96243.53;;;20.67;54.73
74083;BME280;62439;50.490;6.620;2022-07-23T09:53:55;96231.78;;;20.60;54.48
74083;BME280;62439;50.490;6.620;2022-07-23T09:56:27;96227.91;;;20.74;53.83
74083;BME280;62439;50.490;6.620;2022-07-23T09:58:55;96237.13;;;20.77;54.28
74083;BME280;62439;50.490;6.620;2022-07-23T10:01:31;96239.63;;;20.56;53.42
74083;BME280;62439;50.490;6.620;2022-07-23T10:04:01;96230.38;;;20.54;52.54
74083;BME280;62439;50.490;6.620;2022-07-23T10:06:30;96245.88;;;20.77;51.69
74083;BME280;62439;50.490;6.620;2022-07-23T10:08:59;96233.63;;;20.26;52.52
74083;BME280;62439;50.490;6.620;2022-07-23T10:11:28;96233.22;;;20.74;52.22
74083;BME280;62439;50.490;6.620;2022-07-23T10:13:58;96237.13;;;20.94;52.54
74083;BME280;62439;50.490;6.620;2022-07-23T10:16:27;96233.53;;;21.07;50.58
74083;BME280;62439;50.490;6.620;2022-07-23T10:18:55;96241.06;;;20.88;52.05
74083;BME280;62439;50.490;6.620;2022-07-23T10:21:27;96233.25;;;20.83;51.16
74083;BME280;62439;50.490;6.620;2022-07-23T10:24:06;96251.50;;;20.76;51.21
74083;BME280;62439;50.490;6.620;2022-07-23T10:26:41;96243.47;;;20.34;52.13
74083;BME280;62439;50.490;6.620;2022-07-23T10:29:22;96246.97;;;20.76;50.33
74083;BME280;62439;50.490;6.620;2022-07-23T10:31:59;96233.09;;;20.88;51.69
74083;BME280;62439;50.490;6.620;2022-07-23T10:34:36;96237.91;;;21.20;51.93
74083;BME280;62439;50.490;6.620;2022-07-23T10:37:16;96230.69;;;21.29;51.30
74083;BME280;62439;50.490;6.620;2022-07-23T10:39:48;96240.59;;;21.11;51.70
74083;BME280;62439;50.490;6.620;2022-07-23T10:42:35;96233.03;;;21.30;50.21
74083;BME280;62439;50.490;6.620;2022-07-23T10:45:22;96234.75;;;21.26;50.88
74083;BME280;62439;50.490;6.620;2022-07-23T10:47:50;96241.00;;;20.71;52.02
74083;BME280;62439;50.490;6.620;2022-07-23T10:50:23;96215.13;;;20.93;50.13
74083;BME280;62439;50.490;6.620;2022-07-23T10:53:15;96239.91;;;21.31;50.63
74083;BME280;62439;50.490;6.620;2022-07-23T10:55:45;96241.63;;;21.36;50.83
74083;BME280;62439;50.490;6.620;2022-07-23T10:58:21;96232.56;;;20.69;50.22
74083;BME280;62439;50.490;6.620;2022-07-23T11:00:49;96245.06;;;20.60;51.45
74083;BME280;62439;50.490;6.620;2022-07-23T11:03:34;96232.44;;;21.16;49.56
74083;BME280;62439;50.490;6.620;2022-07-23T11:06:04;96220.78;;;21.46;48.66
74083;BME280;62439;50.490;6.620;2022-07-23T11:08:33;96230.31;;;21.47;49.63
74083;BME280;62439;50.490;6.620;2022-07-23T11:11:09;96225.22;;;21.34;49.59
74083;BME280;62439;50.490;6.620;2022-07-23T11:13:58;96231.81;;;21.82;48.87
74083;BME280;62439;50.490;6.620;2022-07-23T11:16:26;96228.47;;;22.22;48.83
74083;BME280;62439;50.490;6.620;2022-07-23T11:18:55;96224.03;;;22.06;47.52
74083;BME280;62439;50.490;6.620;2022-07-23T11:21:46;96229.41;;;21.97;46.41
74083;BME280;62439;50.490;6.620;2022-07-23T11:24:20;96223.75;;;22.28;47.60
74083;BME280;62439;50.490;6.620;2022-07-23T11:27:04;96205.88;;;22.28;46.84
74083;BME280;62439;50.490;6.620;2022-07-23T11:29:39;96224.53;;;22.37;46.48
74083;BME280;62439;50.490;6.620;2022-07-23T11:32:33;96221.28;;;22.23;46.36
74083;BME280;62439;50.490;6.620;2022-07-23T11:35:26;96218.53;;;22.11;46.97
74083;BME280;62439;50.490;6.620;2022-07-23T11:37:54;96204.03;;;22.00;46.81
74083;BME280;62439;50.490;6.620;2022-07-23T11:40:31;96213.97;;;22.11;46.28
74083;BME280;62439;50.490;6.620;2022-07-23T11:43:00;96220.16;;;21.49;46.85
74083;BME280;62439;50.490;6.620;2022-07-23T11:45:32;96214.03;;;21.66;46.73
74083;BME280;62439;50.490;6.620;2022-07-23T11:48:00;96224.94;;;21.81;47.56
74083;BME280;62439;50.490;6.620;2022-07-23T11:50:27;96206.25;;;22.18;45.63
74083;BME280;62439;50.490;6.620;2022-07-23T11:52:55;96211.66;;;22.39;44.65
74083;BME280;62439;50.490;6.620;2022-07-23T11:55:23;96212.22;;;22.15;46.21
74083;BME280;62439;50.490;6.620;2022-07-23T11:57:53;96214.97;;;22.56;45.42
74083;BME280;62439;50.490;6.620;2022-07-23T12:00:24;96224.91;;;22.47;45.05
74083;BME280;62439;50.490;6.620;2022-07-23T12:02:56;96218.50;;;22.69;44.88
74083;BME280;62439;50.490;6.620;2022-07-23T12:05:26;96219.97;;;22.78;44.53
74083;BME280;62439;50.490;6.620;2022-07-23T12:07:56;96218.16;;;22.91;44.13
74083;BME280;62439;50.490;6.620;2022-07-23T12:10:25;96217.81;;;23.12;44.58
74083;BME280;62439;50.490;6.620;2022-07-23T12:12:57;96225.06;;;22.51;45.04
74083;BME280;62439;50.490;6.620;2022-07-23T12:15:27;96227.09;;;22.16;45.79
74083;BME280;62439;50.490;6.620;2022-07-23T12:17:57;96216.03;;;22.64;45.34
74083;BME280;62439;50.490;6.620;2022-07-23T12:20:27;96229.28;;;22.72;45.73
74083;BME280;62439;50.490;6.620;2022-07-23T12:22:57;96212.50;;;22.51;45.32
74083;BME280;62439;50.490;6.620;2022-07-23T12:25:27;96222.78;;;22.82;44.79
74083;BME280;62439;50.490;6.620;2022-07-23T12:28:02;96217.72;;;22.89;44.50
74083;BME280;62439;50.490;6.620;2022-07-23T12:30:32;96216.72;;;22.93;45.35
74083;BME280;62439;50.490;6.620;2022-07-23T12:33:01;96217.47;;;22.82;43.13
74083;BME280;62439;50.490;6.620;2022-07-23T12:35:34;96206.53;;;23.27;43.38
74083;BME280;62439;50.490;6.620;2022-07-23T12:38:04;96216.19;;;23.76;41.93
74083;BME280;62439;50.490;6.620;2022-07-23T12:40:34;96213.38;;;23.49;43.43
74083;BME280;62439;50.490;6.620;2022-07-23T12:43:05;96218.19;;;23.23;43.77
74083;BME280;62439;50.490;6.620;2022-07-23T12:45:45;96195.94;;;23.51;43.25
74083;BME280;62439;50.490;6.620;2022-07-23T12:48:19;96207.84;;;23.21;43.99
74083;BME280;62439;50.490;6.620;2022-07-23T12:50:55;96202.88;;;22.79;43.93
74083;BME280;62439;50.490;6.620;2022-07-23T12:53:26;96210.63;;;22.93;45.48
74083;BME280;62439;50.490;6.620;2022-07-23T12:55:59;96201.19;;;22.95;44.38
74083;BME280;62439;50.490;6.620;2022-07-23T12:58:44;96210.75;;;22.96;44.48
74083;BME280;62439;50.490;6.620;2022-07-23T13:01:24;96206.38;;;23.12;43.75
74083;BME280;62439;50.490;6.620;2022-07-23T13:04:01;96217.59;;;23.38;44.46
74083;BME280;62439;50.490;6.620;2022-07-23T13:06:50;96207.06;;;23.00;44.25
74083;BME280;62439;50.490;6.620;2022-07-23T13:09:19;96205.88;;;23.75;43.14
74083;BME280;62439;50.490;6.620;2022-07-23T13:11:48;96202.47;;;23.98;42.36
74083;BME280;62439;50.490;6.620;2022-07-23T13:14:18;96215.78;;;23.86;44.07